Daytona Beach International Airport Daytona Beach US
ICAO: KDAB
IATA: DAB
Category: Medium
Scheduled Services: Yes

Elevation: 34 ft
TransAlt. 18000 ft.

Airport Communications:
APP:118.85
ATIS:120.05
CLNC DEL:119.3
DEP:123.9
GND:121.9
TWR:120.7
UNICOM:122.95

KDAB Zoom In..

Runways:

(A) RW 07L length 10500 ft width 150 ft
ILS 109.70 / hdg 70

(B) RW 07R length 3195 ft width 100 ft
---- / hdg 70

(C) RW 16 length 6001 ft width 150 ft
---- / hdg 162

(D) RW 25L length 3195 ft width 100 ft
---- / hdg 250

(E) RW 25R length 10500 ft width 150 ft
ILS 109.70 / hdg 250

(F) RW 34 length 6001 ft width 150 ft
---- / hdg 342

Location; KDAB
Day. 22 / Time. 00.53 Zulu
* Altimeter: 30.18
* Temperature: 22° c. 71.6°f.
* Wind from: 080° Speed 11 kn with Gusts up to 17 kn.
Dewpoint: 19° c.
Visibility: 9 Statute Miles.
Clouds: Scattered 2500 ft.
Clouds: Scattered 4000 ft.

KDAB 220053Z 08011G17KT 9SM SCT025 SCT040 22/19 A3018 RMK AO2 SLP219 T02220189


Wind From 080°
Speed 11 kn.

  YouTube Music Video
 
jpsmedia.com for Web Design  worldairports.se 2018   terms of use